sensor_id;sensor_type;location;lat;lon;timestamp;P1;durP1;ratioP1;P2;durP2;ratioP2
33954;SDS011;20233;50.804;7.126;2024-01-11T00:01:13;41.85;;;20.65;;
33954;SDS011;20233;50.804;7.126;2024-01-11T00:03:39;42.72;;;19.77;;
33954;SDS011;20233;50.804;7.126;2024-01-11T00:06:04;46.70;;;19.88;;
33954;SDS011;20233;50.804;7.126;2024-01-11T00:08:30;43.38;;;21.80;;
33954;SDS011;20233;50.804;7.126;2024-01-11T00:10:55;40.95;;;18.92;;
33954;SDS011;20233;50.804;7.126;2024-01-11T00:13:21;43.15;;;21.27;;
33954;SDS011;20233;50.804;7.126;2024-01-11T00:15:47;42.25;;;20.17;;
33954;SDS011;20233;50.804;7.126;2024-01-11T00:18:12;45.72;;;21.45;;
33954;SDS011;20233;50.804;7.126;2024-01-11T00:20:38;43.05;;;20.95;;
33954;SDS011;20233;50.804;7.126;2024-01-11T00:23:03;43.10;;;19.42;;
33954;SDS011;20233;50.804;7.126;2024-01-11T00:25:29;43.30;;;20.85;;
33954;SDS011;20233;50.804;7.126;2024-01-11T00:27:54;45.78;;;22.60;;
33954;SDS011;20233;50.804;7.126;2024-01-11T00:30:20;42.50;;;20.27;;
33954;SDS011;20233;50.804;7.126;2024-01-11T00:32:45;43.78;;;20.40;;
33954;SDS011;20233;50.804;7.126;2024-01-11T00:35:11;41.47;;;20.35;;
33954;SDS011;20233;50.804;7.126;2024-01-11T00:37:36;44.88;;;21.25;;
33954;SDS011;20233;50.804;7.126;2024-01-11T00:40:02;36.63;;;19.27;;
33954;SDS011;20233;50.804;7.126;2024-01-11T00:42:28;41.95;;;20.25;;
33954;SDS011;20233;50.804;7.126;2024-01-11T00:44:53;45.35;;;21.67;;
33954;SDS011;20233;50.804;7.126;2024-01-11T00:47:18;44.88;;;20.98;;
33954;SDS011;20233;50.804;7.126;2024-01-11T00:49:44;47.42;;;21.15;;
33954;SDS011;20233;50.804;7.126;2024-01-11T00:52:09;43.60;;;20.25;;
33954;SDS011;20233;50.804;7.126;2024-01-11T00:54:38;40.60;;;19.33;;
33954;SDS011;20233;50.804;7.126;2024-01-11T00:57:04;43.60;;;21.17;;
33954;SDS011;20233;50.804;7.126;2024-01-11T00:59:29;43.78;;;19.42;;
33954;SDS011;20233;50.804;7.126;2024-01-11T01:01:55;42.65;;;21.33;;
33954;SDS011;20233;50.804;7.126;2024-01-11T01:04:20;45.20;;;20.65;;
33954;SDS011;20233;50.804;7.126;2024-01-11T01:06:46;41.70;;;20.15;;
33954;SDS011;20233;50.804;7.126;2024-01-11T01:09:11;45.78;;;19.85;;
33954;SDS011;20233;50.804;7.126;2024-01-11T01:11:38;40.55;;;20.60;;
33954;SDS011;20233;50.804;7.126;2024-01-11T01:14:04;38.63;;;20.55;;
33954;SDS011;20233;50.804;7.126;2024-01-11T01:16:30;43.25;;;20.42;;
33954;SDS011;20233;50.804;7.126;2024-01-11T01:18:55;41.28;;;20.10;;
33954;SDS011;20233;50.804;7.126;2024-01-11T01:21:21;43.97;;;20.40;;
33954;SDS011;20233;50.804;7.126;2024-01-11T01:23:47;40.40;;;20.85;;
33954;SDS011;20233;50.804;7.126;2024-01-11T01:26:12;42.95;;;20.75;;
33954;SDS011;20233;50.804;7.126;2024-01-11T01:28:38;41.20;;;19.85;;
33954;SDS011;20233;50.804;7.126;2024-01-11T01:31:05;43.30;;;20.13;;
33954;SDS011;20233;50.804;7.126;2024-01-11T01:33:30;41.58;;;20.80;;
33954;SDS011;20233;50.804;7.126;2024-01-11T01:35:56;41.47;;;20.10;;
33954;SDS011;20233;50.804;7.126;2024-01-11T01:38:21;39.75;;;20.77;;
33954;SDS011;20233;50.804;7.126;2024-01-11T01:40:48;46.40;;;21.38;;
33954;SDS011;20233;50.804;7.126;2024-01-11T01:43:13;41.17;;;19.63;;
33954;SDS011;20233;50.804;7.126;2024-01-11T01:45:39;41.42;;;21.42;;
33954;SDS011;20233;50.804;7.126;2024-01-11T01:48:04;45.03;;;20.58;;
33954;SDS011;20233;50.804;7.126;2024-01-11T01:50:31;42.83;;;20.30;;
33954;SDS011;20233;50.804;7.126;2024-01-11T01:52:57;41.33;;;19.17;;
33954;SDS011;20233;50.804;7.126;2024-01-11T01:55:23;45.10;;;20.77;;
33954;SDS011;20233;50.804;7.126;2024-01-11T01:57:50;42.60;;;20.42;;
33954;SDS011;20233;50.804;7.126;2024-01-11T02:00:17;41.53;;;18.77;;
33954;SDS011;20233;50.804;7.126;2024-01-11T02:02:43;41.00;;;18.63;;
33954;SDS011;20233;50.804;7.126;2024-01-11T02:05:12;42.25;;;19.00;;
33954;SDS011;20233;50.804;7.126;2024-01-11T02:07:40;40.58;;;19.38;;
33954;SDS011;20233;50.804;7.126;2024-01-11T02:10:06;42.63;;;20.38;;
33954;SDS011;20233;50.804;7.126;2024-01-11T02:12:32;43.30;;;19.98;;
33954;SDS011;20233;50.804;7.126;2024-01-11T02:15:00;41.35;;;20.98;;
33954;SDS011;20233;50.804;7.126;2024-01-11T02:17:28;38.65;;;19.73;;
33954;SDS011;20233;50.804;7.126;2024-01-11T02:19:54;43.60;;;19.70;;
33954;SDS011;20233;50.804;7.126;2024-01-11T02:22:32;41.53;;;20.73;;
33954;SDS011;20233;50.804;7.126;2024-01-11T02:25:00;41.30;;;21.13;;
33954;SDS011;20233;50.804;7.126;2024-01-11T02:27:27;43.47;;;20.38;;
33954;SDS011;20233;50.804;7.126;2024-01-11T02:29:54;47.03;;;21.52;;
33954;SDS011;20233;50.804;7.126;2024-01-11T02:32:20;38.97;;;18.73;;
33954;SDS011;20233;50.804;7.126;2024-01-11T02:34:45;37.42;;;19.52;;
33954;SDS011;20233;50.804;7.126;2024-01-11T02:37:12;39.65;;;19.92;;
33954;SDS011;20233;50.804;7.126;2024-01-11T02:39:38;42.22;;;19.75;;
33954;SDS011;20233;50.804;7.126;2024-01-11T02:42:04;40.83;;;19.58;;
33954;SDS011;20233;50.804;7.126;2024-01-11T02:44:29;38.97;;;19.55;;
33954;SDS011;20233;50.804;7.126;2024-01-11T02:46:55;44.53;;;19.35;;
33954;SDS011;20233;50.804;7.126;2024-01-11T02:49:20;49.17;;;21.38;;
33954;SDS011;20233;50.804;7.126;2024-01-11T02:51:46;43.17;;;21.45;;
33954;SDS011;20233;50.804;7.126;2024-01-11T02:54:11;42.50;;;20.35;;
33954;SDS011;20233;50.804;7.126;2024-01-11T02:56:37;39.35;;;19.58;;
33954;SDS011;20233;50.804;7.126;2024-01-11T02:59:02;45.85;;;19.80;;
33954;SDS011;20233;50.804;7.126;2024-01-11T03:01:28;43.33;;;21.42;;
33954;SDS011;20233;50.804;7.126;2024-01-11T03:03:54;45.88;;;19.88;;
33954;SDS011;20233;50.804;7.126;2024-01-11T03:06:21;43.70;;;20.75;;
33954;SDS011;20233;50.804;7.126;2024-01-11T03:08:47;36.20;;;19.40;;
33954;SDS011;20233;50.804;7.126;2024-01-11T03:11:14;38.35;;;20.77;;
33954;SDS011;20233;50.804;7.126;2024-01-11T03:13:39;42.13;;;19.90;;
33954;SDS011;20233;50.804;7.126;2024-01-11T03:16:05;40.22;;;19.70;;
33954;SDS011;20233;50.804;7.126;2024-01-11T03:18:30;41.92;;;20.13;;
33954;SDS011;20233;50.804;7.126;2024-01-11T03:20:56;43.50;;;19.55;;
33954;SDS011;20233;50.804;7.126;2024-01-11T03:23:22;45.70;;;20.77;;
33954;SDS011;20233;50.804;7.126;2024-01-11T03:25:48;43.35;;;20.80;;
33954;SDS011;20233;50.804;7.126;2024-01-11T03:28:14;46.72;;;20.95;;
33954;SDS011;20233;50.804;7.126;2024-01-11T03:30:40;42.13;;;20.58;;
33954;SDS011;20233;50.804;7.126;2024-01-11T03:33:05;41.08;;;19.23;;
33954;SDS011;20233;50.804;7.126;2024-01-11T03:35:31;46.08;;;22.20;;
33954;SDS011;20233;50.804;7.126;2024-01-11T03:37:56;43.97;;;20.30;;
33954;SDS011;20233;50.804;7.126;2024-01-11T03:40:22;41.58;;;20.13;;
33954;SDS011;20233;50.804;7.126;2024-01-11T03:42:47;43.20;;;20.92;;
33954;SDS011;20233;50.804;7.126;2024-01-11T03:45:13;43.10;;;20.38;;
33954;SDS011;20233;50.804;7.126;2024-01-11T03:47:42;40.80;;;18.73;;
33954;SDS011;20233;50.804;7.126;2024-01-11T03:50:08;48.15;;;21.50;;
33954;SDS011;20233;50.804;7.126;2024-01-11T03:52:34;43.97;;;20.83;;
33954;SDS011;20233;50.804;7.126;2024-01-11T03:54:59;48.03;;;20.83;;
33954;SDS011;20233;50.804;7.126;2024-01-11T03:57:25;42.90;;;20.10;;
33954;SDS011;20233;50.804;7.126;2024-01-11T03:59:50;46.25;;;21.13;;
33954;SDS011;20233;50.804;7.126;2024-01-11T04:02:16;50.42;;;20.77;;
33954;SDS011;20233;50.804;7.126;2024-01-11T04:04:41;49.35;;;21.30;;
33954;SDS011;20233;50.804;7.126;2024-01-11T04:07:07;43.58;;;20.17;;
33954;SDS011;20233;50.804;7.126;2024-01-11T04:09:32;51.40;;;21.92;;
33954;SDS011;20233;50.804;7.126;2024-01-11T04:11:58;48.65;;;21.75;;
33954;SDS011;20233;50.804;7.126;2024-01-11T04:14:23;46.33;;;21.85;;
33954;SDS011;20233;50.804;7.126;2024-01-11T04:16:49;50.38;;;22.60;;
33954;SDS011;20233;50.804;7.126;2024-01-11T04:19:14;56.97;;;23.95;;
33954;SDS011;20233;50.804;7.126;2024-01-11T04:21:40;54.35;;;24.50;;
33954;SDS011;20233;50.804;7.126;2024-01-11T04:24:06;51.63;;;22.63;;
33954;SDS011;20233;50.804;7.126;2024-01-11T04:26:32;51.90;;;22.75;;
33954;SDS011;20233;50.804;7.126;2024-01-11T04:28:58;47.65;;;23.02;;
33954;SDS011;20233;50.804;7.126;2024-01-11T04:31:25;50.28;;;23.20;;
33954;SDS011;20233;50.804;7.126;2024-01-11T04:33:51;45.63;;;22.02;;
33954;SDS011;20233;50.804;7.126;2024-01-11T04:36:17;46.90;;;21.67;;
33954;SDS011;20233;50.804;7.126;2024-01-11T04:38:42;44.45;;;21.52;;
33954;SDS011;20233;50.804;7.126;2024-01-11T04:41:09;44.95;;;21.45;;
33954;SDS011;20233;50.804;7.126;2024-01-11T04:43:39;47.33;;;20.88;;
33954;SDS011;20233;50.804;7.126;2024-01-11T04:46:19;45.90;;;20.02;;
33954;SDS011;20233;50.804;7.126;2024-01-11T04:48:45;44.63;;;20.13;;
33954;SDS011;20233;50.804;7.126;2024-01-11T04:51:12;49.08;;;21.67;;
33954;SDS011;20233;50.804;7.126;2024-01-11T04:53:38;46.35;;;20.75;;
33954;SDS011;20233;50.804;7.126;2024-01-11T04:56:08;42.63;;;19.52;;
33954;SDS011;20233;50.804;7.126;2024-01-11T04:58:38;45.35;;;19.70;;
33954;SDS011;20233;50.804;7.126;2024-01-11T05:01:05;46.00;;;20.52;;
33954;SDS011;20233;50.804;7.126;2024-01-11T05:03:31;44.45;;;21.98;;
33954;SDS011;20233;50.804;7.126;2024-01-11T05:05:57;42.75;;;19.83;;
33954;SDS011;20233;50.804;7.126;2024-01-11T05:08:23;44.33;;;20.85;;
33954;SDS011;20233;50.804;7.126;2024-01-11T05:10:50;45.45;;;19.73;;
33954;SDS011;20233;50.804;7.126;2024-01-11T05:13:17;44.80;;;20.70;;
33954;SDS011;20233;50.804;7.126;2024-01-11T05:15:43;44.78;;;19.50;;
33954;SDS011;20233;50.804;7.126;2024-01-11T05:18:09;45.63;;;21.65;;
33954;SDS011;20233;50.804;7.126;2024-01-11T05:20:34;46.20;;;21.27;;
33954;SDS011;20233;50.804;7.126;2024-01-11T05:23:00;39.78;;;18.85;;
33954;SDS011;20233;50.804;7.126;2024-01-11T05:25:26;48.92;;;21.23;;
33954;SDS011;20233;50.804;7.126;2024-01-11T05:27:52;42.53;;;19.65;;
33954;SDS011;20233;50.804;7.126;2024-01-11T05:30:17;42.15;;;21.25;;
33954;SDS011;20233;50.804;7.126;2024-01-11T05:32:43;40.53;;;19.83;;
33954;SDS011;20233;50.804;7.126;2024-01-11T05:35:09;42.90;;;20.60;;
33954;SDS011;20233;50.804;7.126;2024-01-11T05:37:35;46.15;;;20.10;;
33954;SDS011;20233;50.804;7.126;2024-01-11T05:40:01;46.95;;;22.25;;
33954;SDS011;20233;50.804;7.126;2024-01-11T05:42:27;38.70;;;18.45;;
33954;SDS011;20233;50.804;7.126;2024-01-11T05:44:52;41.53;;;19.67;;
33954;SDS011;20233;50.804;7.126;2024-01-11T05:47:18;50.92;;;21.33;;
33954;SDS011;20233;50.804;7.126;2024-01-11T05:49:44;40.88;;;19.33;;
33954;SDS011;20233;50.804;7.126;2024-01-11T05:52:11;39.80;;;20.20;;
33954;SDS011;20233;50.804;7.126;2024-01-11T05:54:36;41.50;;;20.02;;
33954;SDS011;20233;50.804;7.126;2024-01-11T05:57:02;44.03;;;20.17;;
33954;SDS011;20233;50.804;7.126;2024-01-11T05:59:28;42.63;;;20.13;;
33954;SDS011;20233;50.804;7.126;2024-01-11T06:01:54;45.78;;;19.42;;
33954;SDS011;20233;50.804;7.126;2024-01-11T06:04:19;38.75;;;20.30;;
33954;SDS011;20233;50.804;7.126;2024-01-11T06:06:45;43.58;;;20.02;;
33954;SDS011;20233;50.804;7.126;2024-01-11T06:09:11;37.88;;;18.42;;
33954;SDS011;20233;50.804;7.126;2024-01-11T06:11:36;42.88;;;20.20;;
33954;SDS011;20233;50.804;7.126;2024-01-11T06:14:02;38.92;;;18.42;;
33954;SDS011;20233;50.804;7.126;2024-01-11T06:16:28;43.45;;;20.30;;
33954;SDS011;20233;50.804;7.126;2024-01-11T06:18:54;45.13;;;19.75;;
33954;SDS011;20233;50.804;7.126;2024-01-11T06:21:19;43.38;;;19.63;;
33954;SDS011;20233;50.804;7.126;2024-01-11T06:23:45;46.55;;;18.83;;
33954;SDS011;20233;50.804;7.126;2024-01-11T06:26:11;40.22;;;19.38;;
33954;SDS011;20233;50.804;7.126;2024-01-11T06:28:36;41.42;;;21.17;;
33954;SDS011;20233;50.804;7.126;2024-01-11T06:31:02;42.63;;;20.15;;
33954;SDS011;20233;50.804;7.126;2024-01-11T06:33:28;45.08;;;20.73;;
33954;SDS011;20233;50.804;7.126;2024-01-11T06:35:54;42.47;;;20.88;;
33954;SDS011;20233;50.804;7.126;2024-01-11T06:38:19;44.78;;;20.13;;
33954;SDS011;20233;50.804;7.126;2024-01-11T06:40:45;47.88;;;20.80;;
33954;SDS011;20233;50.804;7.126;2024-01-11T06:43:11;49.58;;;21.02;;
33954;SDS011;20233;50.804;7.126;2024-01-11T06:45:37;45.10;;;20.58;;
33954;SDS011;20233;50.804;7.126;2024-01-11T06:48:03;43.33;;;21.02;;
33954;SDS011;20233;50.804;7.126;2024-01-11T06:50:29;46.97;;;21.77;;
33954;SDS011;20233;50.804;7.126;2024-01-11T06:52:55;41.25;;;20.63;;
33954;SDS011;20233;50.804;7.126;2024-01-11T06:55:20;45.13;;;21.75;;
33954;SDS011;20233;50.804;7.126;2024-01-11T06:57:46;45.05;;;22.05;;
33954;SDS011;20233;50.804;7.126;2024-01-11T07:00:14;48.92;;;21.88;;
33954;SDS011;20233;50.804;7.126;2024-01-11T07:02:40;46.85;;;22.67;;
33954;SDS011;20233;50.804;7.126;2024-01-11T07:05:06;48.45;;;22.92;;
33954;SDS011;20233;50.804;7.126;2024-01-11T07:07:32;44.38;;;21.92;;
33954;SDS011;20233;50.804;7.126;2024-01-11T07:09:59;47.85;;;21.92;;
33954;SDS011;20233;50.804;7.126;2024-01-11T07:12:25;49.28;;;23.20;;
33954;SDS011;20233;50.804;7.126;2024-01-11T07:14:51;49.38;;;23.90;;
33954;SDS011;20233;50.804;7.126;2024-01-11T07:17:18;49.60;;;24.38;;
33954;SDS011;20233;50.804;7.126;2024-01-11T07:19:43;52.58;;;23.55;;
33954;SDS011;20233;50.804;7.126;2024-01-11T07:22:09;49.17;;;23.58;;
33954;SDS011;20233;50.804;7.126;2024-01-11T07:24:34;47.03;;;22.40;;
33954;SDS011;20233;50.804;7.126;2024-01-11T07:27:04;50.53;;;23.08;;
33954;SDS011;20233;50.804;7.126;2024-01-11T07:29:30;49.00;;;22.45;;
33954;SDS011;20233;50.804;7.126;2024-01-11T07:31:55;47.35;;;22.27;;
33954;SDS011;20233;50.804;7.126;2024-01-11T07:34:21;49.22;;;22.10;;
33954;SDS011;20233;50.804;7.126;2024-01-11T07:36:47;46.28;;;20.80;;
33954;SDS011;20233;50.804;7.126;2024-01-11T07:39:12;52.63;;;22.98;;
33954;SDS011;20233;50.804;7.126;2024-01-11T07:41:38;48.78;;;22.25;;
33954;SDS011;20233;50.804;7.126;2024-01-11T07:44:04;54.88;;;24.10;;
33954;SDS011;20233;50.804;7.126;2024-01-11T07:46:30;48.40;;;24.13;;
33954;SDS011;20233;50.804;7.126;2024-01-11T07:48:56;48.78;;;23.63;;
33954;SDS011;20233;50.804;7.126;2024-01-11T07:51:24;48.38;;;23.85;;
33954;SDS011;20233;50.804;7.126;2024-01-11T07:53:50;51.15;;;24.13;;
33954;SDS011;20233;50.804;7.126;2024-01-11T07:56:15;50.03;;;23.15;;
33954;SDS011;20233;50.804;7.126;2024-01-11T07:58:42;48.55;;;23.98;;
33954;SDS011;20233;50.804;7.126;2024-01-11T08:01:07;52.20;;;24.88;;
33954;SDS011;20233;50.804;7.126;2024-01-11T08:03:34;56.95;;;25.58;;
33954;SDS011;20233;50.804;7.126;2024-01-11T08:06:00;52.67;;;24.38;;
33954;SDS011;20233;50.804;7.126;2024-01-11T08:08:26;59.17;;;26.02;;
33954;SDS011;20233;50.804;7.126;2024-01-11T08:10:51;54.25;;;25.95;;
33954;SDS011;20233;50.804;7.126;2024-01-11T08:13:17;59.22;;;25.50;;
33954;SDS011;20233;50.804;7.126;2024-01-11T08:15:44;52.97;;;24.65;;
33954;SDS011;20233;50.804;7.126;2024-01-11T08:18:09;54.22;;;25.60;;
33954;SDS011;20233;50.804;7.126;2024-01-11T08:20:35;53.92;;;25.13;;
33954;SDS011;20233;50.804;7.126;2024-01-11T08:23:00;59.05;;;24.73;;
33954;SDS011;20233;50.804;7.126;2024-01-11T08:25:26;58.30;;;23.67;;
33954;SDS011;20233;50.804;7.126;2024-01-11T08:27:52;53.65;;;24.00;;
33954;SDS011;20233;50.804;7.126;2024-01-11T08:30:18;49.47;;;24.10;;
33954;SDS011;20233;50.804;7.126;2024-01-11T08:32:44;58.97;;;24.45;;
33954;SDS011;20233;50.804;7.126;2024-01-11T08:35:10;59.00;;;25.38;;
33954;SDS011;20233;50.804;7.126;2024-01-11T08:37:36;50.67;;;23.08;;
33954;SDS011;20233;50.804;7.126;2024-01-11T08:40:02;55.35;;;25.58;;
33954;SDS011;20233;50.804;7.126;2024-01-11T08:42:30;47.53;;;24.52;;
33954;SDS011;20233;50.804;7.126;2024-01-11T08:44:56;50.03;;;23.55;;
33954;SDS011;20233;50.804;7.126;2024-01-11T08:47:21;51.95;;;23.27;;
33954;SDS011;20233;50.804;7.126;2024-01-11T08:49:47;49.60;;;23.67;;
33954;SDS011;20233;50.804;7.126;2024-01-11T08:52:13;55.70;;;24.80;;
33954;SDS011;20233;50.804;7.126;2024-01-11T08:54:39;50.53;;;23.08;;
33954;SDS011;20233;50.804;7.126;2024-01-11T08:57:04;54.03;;;25.48;;
33954;SDS011;20233;50.804;7.126;2024-01-11T08:59:31;52.70;;;24.60;;
33954;SDS011;20233;50.804;7.126;2024-01-11T09:01:56;51.35;;;23.42;;
33954;SDS011;20233;50.804;7.126;2024-01-11T09:04:22;56.80;;;24.05;;
33954;SDS011;20233;50.804;7.126;2024-01-11T09:06:48;55.05;;;25.08;;
33954;SDS011;20233;50.804;7.126;2024-01-11T09:09:13;59.17;;;24.92;;
33954;SDS011;20233;50.804;7.126;2024-01-11T09:11:39;54.88;;;23.95;;
33954;SDS011;20233;50.804;7.126;2024-01-11T09:14:08;56.15;;;23.77;;
33954;SDS011;20233;50.804;7.126;2024-01-11T09:16:38;49.92;;;24.27;;
33954;SDS011;20233;50.804;7.126;2024-01-11T09:19:05;48.15;;;24.05;;
33954;SDS011;20233;50.804;7.126;2024-01-11T09:21:31;58.08;;;25.42;;
33954;SDS011;20233;50.804;7.126;2024-01-11T09:23:57;51.38;;;24.55;;
33954;SDS011;20233;50.804;7.126;2024-01-11T09:26:22;50.83;;;24.45;;
33954;SDS011;20233;50.804;7.126;2024-01-11T09:28:48;51.75;;;24.60;;
33954;SDS011;20233;50.804;7.126;2024-01-11T09:31:14;55.10;;;26.83;;
33954;SDS011;20233;50.804;7.126;2024-01-11T09:33:39;54.67;;;24.92;;
33954;SDS011;20233;50.804;7.126;2024-01-11T09:36:07;47.88;;;24.50;;
33954;SDS011;20233;50.804;7.126;2024-01-11T09:38:33;52.33;;;25.45;;
33954;SDS011;20233;50.804;7.126;2024-01-11T09:41:02;58.40;;;26.27;;
33954;SDS011;20233;50.804;7.126;2024-01-11T09:43:35;52.03;;;25.95;;
33954;SDS011;20233;50.804;7.126;2024-01-11T09:46:04;53.10;;;25.45;;
33954;SDS011;20233;50.804;7.126;2024-01-11T09:48:32;55.83;;;24.30;;
33954;SDS011;20233;50.804;7.126;2024-01-11T09:50:59;58.28;;;25.50;;
33954;SDS011;20233;50.804;7.126;2024-01-11T09:53:29;53.92;;;26.05;;
33954;SDS011;20233;50.804;7.126;2024-01-11T09:55:58;60.03;;;26.65;;
33954;SDS011;20233;50.804;7.126;2024-01-11T09:58:24;59.65;;;25.73;;
33954;SDS011;20233;50.804;7.126;2024-01-11T10:00:52;56.65;;;27.25;;
33954;SDS011;20233;50.804;7.126;2024-01-11T10:03:20;53.92;;;23.85;;
33954;SDS011;20233;50.804;7.126;2024-01-11T10:05:50;60.60;;;27.15;;
33954;SDS011;20233;50.804;7.126;2024-01-11T10:10:47;56.00;;;24.92;;
33954;SDS011;20233;50.804;7.126;2024-01-11T10:13:13;55.40;;;25.63;;
33954;SDS011;20233;50.804;7.126;2024-01-11T10:15:39;57.38;;;26.02;;
33954;SDS011;20233;50.804;7.126;2024-01-11T10:18:05;57.30;;;25.70;;
33954;SDS011;20233;50.804;7.126;2024-01-11T10:20:31;52.42;;;26.45;;
33954;SDS011;20233;50.804;7.126;2024-01-11T10:22:57;52.53;;;24.27;;
33954;SDS011;20233;50.804;7.126;2024-01-11T10:25:24;59.72;;;27.58;;
33954;SDS011;20233;50.804;7.126;2024-01-11T10:27:50;58.00;;;27.73;;
33954;SDS011;20233;50.804;7.126;2024-01-11T10:30:16;49.03;;;24.92;;
33954;SDS011;20233;50.804;7.126;2024-01-11T10:32:46;53.85;;;25.23;;
33954;SDS011;20233;50.804;7.126;2024-01-11T10:35:12;47.13;;;24.33;;
33954;SDS011;20233;50.804;7.126;2024-01-11T10:37:38;55.05;;;25.63;;
33954;SDS011;20233;50.804;7.126;2024-01-11T10:40:05;56.65;;;25.85;;
33954;SDS011;20233;50.804;7.126;2024-01-11T10:42:41;56.47;;;26.05;;
33954;SDS011;20233;50.804;7.126;2024-01-11T10:45:10;52.22;;;25.17;;
33954;SDS011;20233;50.804;7.126;2024-01-11T10:47:55;55.75;;;26.27;;
33954;SDS011;20233;50.804;7.126;2024-01-11T10:50:26;53.37;;;25.97;;
33954;SDS011;20233;50.804;7.126;2024-01-11T10:55:39;52.20;;;25.42;;
33954;SDS011;20233;50.804;7.126;2024-01-11T10:58:07;55.92;;;25.92;;
33954;SDS011;20233;50.804;7.126;2024-01-11T11:00:35;49.15;;;24.70;;
33954;SDS011;20233;50.804;7.126;2024-01-11T11:03:01;59.28;;;26.77;;
33954;SDS011;20233;50.804;7.126;2024-01-11T11:05:29;57.67;;;26.95;;
33954;SDS011;20233;50.804;7.126;2024-01-11T11:07:55;50.72;;;27.20;;
33954;SDS011;20233;50.804;7.126;2024-01-11T11:10:23;54.17;;;25.65;;
33954;SDS011;20233;50.804;7.126;2024-01-11T11:12:51;50.38;;;26.60;;
33954;SDS011;20233;50.804;7.126;2024-01-11T11:15:19;50.92;;;26.98;;
33954;SDS011;20233;50.804;7.126;2024-01-11T11:17:45;55.63;;;26.08;;
33954;SDS011;20233;50.804;7.126;2024-01-11T11:20:11;57.70;;;27.65;;
33954;SDS011;20233;50.804;7.126;2024-01-11T11:22:37;60.28;;;28.42;;
33954;SDS011;20233;50.804;7.126;2024-01-11T11:25:09;60.67;;;29.38;;
33954;SDS011;20233;50.804;7.126;2024-01-11T11:27:35;58.58;;;28.23;;
33954;SDS011;20233;50.804;7.126;2024-01-11T11:30:02;52.78;;;25.80;;
33954;SDS011;20233;50.804;7.126;2024-01-11T11:32:35;55.42;;;28.83;;
33954;SDS011;20233;50.804;7.126;2024-01-11T11:35:03;56.28;;;28.17;;
33954;SDS011;20233;50.804;7.126;2024-01-11T11:37:29;61.45;;;29.80;;
33954;SDS011;20233;50.804;7.126;2024-01-11T11:39:57;59.30;;;29.17;;
33954;SDS011;20233;50.804;7.126;2024-01-11T11:42:23;60.00;;;26.98;;
33954;SDS011;20233;50.804;7.126;2024-01-11T11:44:50;55.83;;;28.30;;
33954;SDS011;20233;50.804;7.126;2024-01-11T11:47:17;55.53;;;28.80;;
33954;SDS011;20233;50.804;7.126;2024-01-11T11:49:57;59.97;;;30.05;;
33954;SDS011;20233;50.804;7.126;2024-01-11T11:52:39;55.72;;;29.00;;
33954;SDS011;20233;50.804;7.126;2024-01-11T11:57:33;56.47;;;28.38;;
33954;SDS011;20233;50.804;7.126;2024-01-11T11:59:59;60.20;;;29.70;;
33954;SDS011;20233;50.804;7.126;2024-01-11T12:02:28;64.90;;;31.77;;
33954;SDS011;20233;50.804;7.126;2024-01-11T12:04:53;60.65;;;30.73;;
33954;SDS011;20233;50.804;7.126;2024-01-11T12:07:20;56.63;;;29.35;;
33954;SDS011;20233;50.804;7.126;2024-01-11T12:09:46;63.65;;;30.70;;
33954;SDS011;20233;50.804;7.126;2024-01-11T12:12:12;60.47;;;31.25;;
33954;SDS011;20233;50.804;7.126;2024-01-11T12:14:38;60.42;;;30.27;;
33954;SDS011;20233;50.804;7.126;2024-01-11T12:17:05;60.80;;;30.98;;
33954;SDS011;20233;50.804;7.126;2024-01-11T12:19:31;63.13;;;31.75;;
33954;SDS011;20233;50.804;7.126;2024-01-11T12:21:57;62.03;;;32.65;;
33954;SDS011;20233;50.804;7.126;2024-01-11T12:24:24;58.90;;;29.10;;
33954;SDS011;20233;50.804;7.126;2024-01-11T12:26:50;66.22;;;31.63;;
33954;SDS011;20233;50.804;7.126;2024-01-11T12:29:18;55.33;;;30.20;;
33954;SDS011;20233;50.804;7.126;2024-01-11T12:31:44;65.13;;;31.52;;
33954;SDS011;20233;50.804;7.126;2024-01-11T12:34:11;59.88;;;31.05;;
33954;SDS011;20233;50.804;7.126;2024-01-11T12:36:37;62.75;;;31.55;;
33954;SDS011;20233;50.804;7.126;2024-01-11T12:39:03;62.58;;;31.08;;
33954;SDS011;20233;50.804;7.126;2024-01-11T12:41:31;60.03;;;30.70;;
33954;SDS011;20233;50.804;7.126;2024-01-11T12:43:58;66.55;;;33.58;;
33954;SDS011;20233;50.804;7.126;2024-01-11T12:46:23;62.75;;;33.10;;
33954;SDS011;20233;50.804;7.126;2024-01-11T12:48:49;65.93;;;32.97;;
33954;SDS011;20233;50.804;7.126;2024-01-11T12:51:16;60.15;;;32.05;;
33954;SDS011;20233;50.804;7.126;2024-01-11T12:53:44;63.70;;;32.13;;
33954;SDS011;20233;50.804;7.126;2024-01-11T12:56:11;70.35;;;35.15;;
33954;SDS011;20233;50.804;7.126;2024-01-11T12:58:39;59.35;;;32.42;;
33954;SDS011;20233;50.804;7.126;2024-01-11T13:01:06;67.63;;;34.15;;
33954;SDS011;20233;50.804;7.126;2024-01-11T13:03:35;73.72;;;34.20;;
33954;SDS011;20233;50.804;7.126;2024-01-11T13:06:02;62.03;;;34.05;;
33954;SDS011;20233;50.804;7.126;2024-01-11T13:08:33;67.25;;;34.78;;
33954;SDS011;20233;50.804;7.126;2024-01-11T13:11:04;67.72;;;33.92;;
33954;SDS011;20233;50.804;7.126;2024-01-11T13:13:32;67.57;;;35.58;;
33954;SDS011;20233;50.804;7.126;2024-01-11T13:15:59;65.90;;;34.28;;
33954;SDS011;20233;50.804;7.126;2024-01-11T13:18:25;68.70;;;36.13;;
33954;SDS011;20233;50.804;7.126;2024-01-11T13:20:50;67.22;;;35.08;;
33954;SDS011;20233;50.804;7.126;2024-01-11T13:23:17;66.10;;;36.28;;
33954;SDS011;20233;50.804;7.126;2024-01-11T13:25:47;58.08;;;27.50;;
33954;SDS011;20233;50.804;7.126;2024-01-11T13:28:17;61.58;;;33.45;;
33954;SDS011;20233;50.804;7.126;2024-01-11T13:30:44;69.82;;;35.03;;
33954;SDS011;20233;50.804;7.126;2024-01-11T13:33:10;63.00;;;33.42;;
33954;SDS011;20233;50.804;7.126;2024-01-11T13:35:37;70.43;;;35.03;;
33954;SDS011;20233;50.804;7.126;2024-01-11T13:38:04;63.50;;;33.70;;
33954;SDS011;20233;50.804;7.126;2024-01-11T13:40:31;68.88;;;33.55;;
33954;SDS011;20233;50.804;7.126;2024-01-11T13:42:57;58.72;;;33.60;;
33954;SDS011;20233;50.804;7.126;2024-01-11T13:45:24;62.42;;;32.63;;
33954;SDS011;20233;50.804;7.126;2024-01-11T13:47:50;60.55;;;31.92;;
33954;SDS011;20233;50.804;7.126;2024-01-11T13:50:16;63.28;;;32.42;;
33954;SDS011;20233;50.804;7.126;2024-01-11T13:52:43;62.78;;;31.85;;
33954;SDS011;20233;50.804;7.126;2024-01-11T13:55:09;61.05;;;32.03;;
33954;SDS011;20233;50.804;7.126;2024-01-11T13:57:36;59.35;;;32.42;;
33954;SDS011;20233;50.804;7.126;2024-01-11T14:00:02;60.30;;;31.88;;
33954;SDS011;20233;50.804;7.126;2024-01-11T14:02:29;56.28;;;32.47;;
33954;SDS011;20233;50.804;7.126;2024-01-11T14:04:55;59.28;;;30.90;;
33954;SDS011;20233;50.804;7.126;2024-01-11T14:07:20;60.42;;;35.00;;
33954;SDS011;20233;50.804;7.126;2024-01-11T14:09:46;58.80;;;31.73;;
33954;SDS011;20233;50.804;7.126;2024-01-11T14:12:12;55.83;;;31.05;;
33954;SDS011;20233;50.804;7.126;2024-01-11T14:14:40;54.38;;;30.50;;
33954;SDS011;20233;50.804;7.126;2024-01-11T14:17:05;57.88;;;31.75;;
33954;SDS011;20233;50.804;7.126;2024-01-11T14:19:31;55.33;;;29.52;;
33954;SDS011;20233;50.804;7.126;2024-01-11T14:21:57;51.08;;;28.92;;
33954;SDS011;20233;50.804;7.126;2024-01-11T14:24:22;53.70;;;28.15;;